sensor_id;sensor_type;location;lat;lon;timestamp;P1;P2;P0
72908;PMS5003;61051;62.624;17.950;2023-11-18T00:00:17;15;12;
72908;PMS5003;61051;62.624;17.950;2023-11-18T00:02:45;25;16;
72908;PMS5003;61051;62.624;17.950;2023-11-18T00:05:15;22;15;
72908;PMS5003;61051;62.624;17.950;2023-11-18T00:07:43;19;16;
72908;PMS5003;61051;62.624;17.950;2023-11-18T00:10:12;19;15;
72908;PMS5003;61051;62.624;17.950;2023-11-18T00:12:41;15;12;
72908;PMS5003;61051;62.624;17.950;2023-11-18T00:15:09;15;15;
72908;PMS5003;61051;62.624;17.950;2023-11-18T00:17:38;19;13;
72908;PMS5003;61051;62.624;17.950;2023-11-18T00:20:08;10;9;
72908;PMS5003;61051;62.624;17.950;2023-11-18T00:22:37;10;9;
72908;PMS5003;61051;62.624;17.950;2023-11-18T00:25:06;12;10;
72908;PMS5003;61051;62.624;17.950;2023-11-18T00:27:35;12;9;
72908;PMS5003;61051;62.624;17.950;2023-11-18T00:30:05;12;7;
72908;PMS5003;61051;62.624;17.950;2023-11-18T00:32:35;7;7;
72908;PMS5003;61051;62.624;17.950;2023-11-18T00:35:03;12;9;
72908;PMS5003;61051;62.624;17.950;2023-11-18T00:37:32;12;7;
72908;PMS5003;61051;62.624;17.950;2023-11-18T00:40:01;13;9;
72908;PMS5003;61051;62.624;17.950;2023-11-18T00:42:30;12;9;
72908;PMS5003;61051;62.624;17.950;2023-11-18T00:44:58;10;9;
72908;PMS5003;61051;62.624;17.950;2023-11-18T00:47:27;7;7;
72908;PMS5003;61051;62.624;17.950;2023-11-18T00:49:56;12;10;
72908;PMS5003;61051;62.624;17.950;2023-11-18T00:52:25;10;10;
72908;PMS5003;61051;62.624;17.950;2023-11-18T00:54:54;9;9;
72908;PMS5003;61051;62.624;17.950;2023-11-18T00:57:21;13;10;
72908;PMS5003;61051;62.624;17.950;2023-11-18T00:59:51;6;6;
72908;PMS5003;61051;62.624;17.950;2023-11-18T01:02:19;12;9;
72908;PMS5003;61051;62.624;17.950;2023-11-18T01:04:48;6;1;
72908;PMS5003;61051;62.624;17.950;2023-11-18T01:07:17;4;4;
72908;PMS5003;61051;62.624;17.950;2023-11-18T01:09:46;6;6;
72908;PMS5003;61051;62.624;17.950;2023-11-18T01:12:16;7;4;
72908;PMS5003;61051;62.624;17.950;2023-11-18T01:14:44;7;6;
72908;PMS5003;61051;62.624;17.950;2023-11-18T01:17:14;6;6;
72908;PMS5003;61051;62.624;17.950;2023-11-18T01:19:43;9;6;
72908;PMS5003;61051;62.624;17.950;2023-11-18T01:22:12;7;7;
72908;PMS5003;61051;62.624;17.950;2023-11-18T01:24:41;7;7;
72908;PMS5003;61051;62.624;17.950;2023-11-18T01:27:10;6;4;
72908;PMS5003;61051;62.624;17.950;2023-11-18T01:29:39;4;4;
72908;PMS5003;61051;62.624;17.950;2023-11-18T01:32:08;6;4;
72908;PMS5003;61051;62.624;17.950;2023-11-18T01:34:37;9;6;
72908;PMS5003;61051;62.624;17.950;2023-11-18T01:37:06;3;3;
72908;PMS5003;61051;62.624;17.950;2023-11-18T01:39:35;3;3;
72908;PMS5003;61051;62.624;17.950;2023-11-18T01:42:04;3;3;
72908;PMS5003;61051;62.624;17.950;2023-11-18T01:44:33;3;3;
72908;PMS5003;61051;62.624;17.950;2023-11-18T01:47:02;1;1;
72908;PMS5003;61051;62.624;17.950;2023-11-18T01:49:31;6;6;
72908;PMS5003;61051;62.624;17.950;2023-11-18T01:52:04;9;6;
72908;PMS5003;61051;62.624;17.950;2023-11-18T01:54:32;9;6;
72908;PMS5003;61051;62.624;17.950;2023-11-18T01:57:01;10;7;
72908;PMS5003;61051;62.624;17.950;2023-11-18T01:59:30;7;7;
72908;PMS5003;61051;62.624;17.950;2023-11-18T02:01:59;7;6;
72908;PMS5003;61051;62.624;17.950;2023-11-18T02:04:28;13;10;
72908;PMS5003;61051;62.624;17.950;2023-11-18T02:06:57;7;7;
72908;PMS5003;61051;62.624;17.950;2023-11-18T02:09:26;12;9;
72908;PMS5003;61051;62.624;17.950;2023-11-18T02:11:56;10;5;
72908;PMS5003;61051;62.624;17.950;2023-11-18T02:14:28;8;8;
72908;PMS5003;61051;62.624;17.950;2023-11-18T02:16:59;8;7;
72908;PMS5003;61051;62.624;17.950;2023-11-18T02:19:31;10;10;
72908;PMS5003;61051;62.624;17.950;2023-11-18T02:22:02;5;5;
72908;PMS5003;61051;62.624;17.950;2023-11-18T02:24:33;10;7;
72908;PMS5003;61051;62.624;17.950;2023-11-18T02:27:03;10;7;
72908;PMS5003;61051;62.624;17.950;2023-11-18T02:29:34;8;5;
72908;PMS5003;61051;62.624;17.950;2023-11-18T02:32:06;9;9;
72908;PMS5003;61051;62.624;17.950;2023-11-18T02:34:45;13;8;
72908;PMS5003;61051;62.624;17.950;2023-11-18T02:37:21;8;8;
72908;PMS5003;61051;62.624;17.950;2023-11-18T02:39:52;11;5;
72908;PMS5003;61051;62.624;17.950;2023-11-18T02:42:28;11;8;
72908;PMS5003;61051;62.624;17.950;2023-11-18T02:44:57;11;10;
72908;PMS5003;61051;62.624;17.950;2023-11-18T02:47:26;13;11;
72908;PMS5003;61051;62.624;17.950;2023-11-18T02:49:55;13;11;
72908;PMS5003;61051;62.624;17.950;2023-11-18T02:52:24;11;11;
72908;PMS5003;61051;62.624;17.950;2023-11-18T02:54:54;13;9;
72908;PMS5003;61051;62.624;17.950;2023-11-18T02:57:22;10;10;
72908;PMS5003;61051;62.624;17.950;2023-11-18T02:59:52;12;9;
72908;PMS5003;61051;62.624;17.950;2023-11-18T03:02:22;12;9;
72908;PMS5003;61051;62.624;17.950;2023-11-18T03:04:52;21;13;
72908;PMS5003;61051;62.624;17.950;2023-11-18T03:07:22;13;10;
72908;PMS5003;61051;62.624;17.950;2023-11-18T03:09:51;7;7;
72908;PMS5003;61051;62.624;17.950;2023-11-18T03:12:20;9;9;
72908;PMS5003;61051;62.624;17.950;2023-11-18T03:14:49;7;7;
72908;PMS5003;61051;62.624;17.950;2023-11-18T03:17:18;10;9;
72908;PMS5003;61051;62.624;17.950;2023-11-18T03:19:47;12;7;
72908;PMS5003;61051;62.624;17.950;2023-11-18T03:22:16;13;7;
72908;PMS5003;61051;62.624;17.950;2023-11-18T03:24:45;15;10;
72908;PMS5003;61051;62.624;17.950;2023-11-18T03:27:14;13;9;
72908;PMS5003;61051;62.624;17.950;2023-11-18T03:29:43;10;9;
72908;PMS5003;61051;62.624;17.950;2023-11-18T03:32:12;10;7;
72908;PMS5003;61051;62.624;17.950;2023-11-18T03:34:41;10;7;
72908;PMS5003;61051;62.624;17.950;2023-11-18T03:37:10;10;10;
72908;PMS5003;61051;62.624;17.950;2023-11-18T03:39:39;12;9;
72908;PMS5003;61051;62.624;17.950;2023-11-18T03:42:08;12;10;
72908;PMS5003;61051;62.624;17.950;2023-11-18T03:44:37;9;6;
72908;PMS5003;61051;62.624;17.950;2023-11-18T03:47:06;13;12;
72908;PMS5003;61051;62.624;17.950;2023-11-18T03:49:35;13;9;
72908;PMS5003;61051;62.624;17.950;2023-11-18T03:52:04;10;7;
72908;PMS5003;61051;62.624;17.950;2023-11-18T03:54:33;6;6;
72908;PMS5003;61051;62.624;17.950;2023-11-18T03:57:02;12;9;
72908;PMS5003;61051;62.624;17.950;2023-11-18T03:59:32;10;9;
72908;PMS5003;61051;62.624;17.950;2023-11-18T04:02:01;12;10;
72908;PMS5003;61051;62.624;17.950;2023-11-18T04:04:30;10;9;
72908;PMS5003;61051;62.624;17.950;2023-11-18T04:06:59;7;7;
72908;PMS5003;61051;62.624;17.950;2023-11-18T04:09:28;7;6;
72908;PMS5003;61051;62.624;17.950;2023-11-18T04:11:57;7;7;
72908;PMS5003;61051;62.624;17.950;2023-11-18T04:14:26;13;9;
72908;PMS5003;61051;62.624;17.950;2023-11-18T04:16:55;8;8;
72908;PMS5003;61051;62.624;17.950;2023-11-18T04:19:24;5;5;
72908;PMS5003;61051;62.624;17.950;2023-11-18T04:21:54;9;9;
72908;PMS5003;61051;62.624;17.950;2023-11-18T04:24:22;6;4;
72908;PMS5003;61051;62.624;17.950;2023-11-18T04:26:51;6;6;
72908;PMS5003;61051;62.624;17.950;2023-11-18T04:29:22;4;4;
72908;PMS5003;61051;62.624;17.950;2023-11-18T04:31:51;6;4;
72908;PMS5003;61051;62.624;17.950;2023-11-18T04:34:20;4;4;
72908;PMS5003;61051;62.624;17.950;2023-11-18T04:36:49;4;4;
72908;PMS5003;61051;62.624;17.950;2023-11-18T04:39:18;2;2;
72908;PMS5003;61051;62.624;17.950;2023-11-18T04:41:47;3;3;
72908;PMS5003;61051;62.624;17.950;2023-11-18T04:44:16;4;4;
72908;PMS5003;61051;62.624;17.950;2023-11-18T04:46:45;6;4;
72908;PMS5003;61051;62.624;17.950;2023-11-18T04:49:14;9;6;
72908;PMS5003;61051;62.624;17.950;2023-11-18T04:51:43;3;3;
72908;PMS5003;61051;62.624;17.950;2023-11-18T04:54:12;4;3;
72908;PMS5003;61051;62.624;17.950;2023-11-18T04:56:41;1;1;
72908;PMS5003;61051;62.624;17.950;2023-11-18T04:59:10;7;6;
72908;PMS5003;61051;62.624;17.950;2023-11-18T05:03:20;7;4;
72908;PMS5003;61051;62.624;17.950;2023-11-18T05:05:49;4;4;
72908;PMS5003;61051;62.624;17.950;2023-11-18T05:08:18;7;6;
72908;PMS5003;61051;62.624;17.950;2023-11-18T05:10:49;7;6;
72908;PMS5003;61051;62.624;17.950;2023-11-18T05:13:18;4;4;
72908;PMS5003;61051;62.624;17.950;2023-11-18T05:15:47;4;4;
72908;PMS5003;61051;62.624;17.950;2023-11-18T05:18:16;10;7;
72908;PMS5003;61051;62.624;17.950;2023-11-18T05:20:45;7;6;
72908;PMS5003;61051;62.624;17.950;2023-11-18T05:23:14;9;7;
72908;PMS5003;61051;62.624;17.950;2023-11-18T05:25:43;10;4;
72908;PMS5003;61051;62.624;17.950;2023-11-18T05:28:12;7;4;
72908;PMS5003;61051;62.624;17.950;2023-11-18T05:30:41;13;7;
72908;PMS5003;61051;62.624;17.950;2023-11-18T05:33:10;9;7;
72908;PMS5003;61051;62.624;17.950;2023-11-18T05:35:39;9;6;
72908;PMS5003;61051;62.624;17.950;2023-11-18T05:38:08;4;3;
72908;PMS5003;61051;62.624;17.950;2023-11-18T05:40:37;4;3;
72908;PMS5003;61051;62.624;17.950;2023-11-18T05:43:07;4;4;
72908;PMS5003;61051;62.624;17.950;2023-11-18T05:45:35;6;6;
72908;PMS5003;61051;62.624;17.950;2023-11-18T05:48:04;6;4;
72908;PMS5003;61051;62.624;17.950;2023-11-18T05:50:33;3;3;
72908;PMS5003;61051;62.624;17.950;2023-11-18T05:53:02;1;1;
72908;PMS5003;61051;62.624;17.950;2023-11-18T05:55:31;3;1;
72908;PMS5003;61051;62.624;17.950;2023-11-18T05:58:01;7;3;
72908;PMS5003;61051;62.624;17.950;2023-11-18T06:00:29;9;6;
72908;PMS5003;61051;62.624;17.950;2023-11-18T06:03:01;4;4;
72908;PMS5003;61051;62.624;17.950;2023-11-18T06:05:29;9;7;
72908;PMS5003;61051;62.624;17.950;2023-11-18T06:07:59;6;6;
72908;PMS5003;61051;62.624;17.950;2023-11-18T06:10:27;6;4;
72908;PMS5003;61051;62.624;17.950;2023-11-18T06:12:56;7;7;
72908;PMS5003;61051;62.624;17.950;2023-11-18T06:15:25;9;6;
72908;PMS5003;61051;62.624;17.950;2023-11-18T06:17:54;6;6;
72908;PMS5003;61051;62.624;17.950;2023-11-18T06:20:23;12;7;
72908;PMS5003;61051;62.624;17.950;2023-11-18T06:22:52;7;6;
72908;PMS5003;61051;62.624;17.950;2023-11-18T06:25:21;4;4;
72908;PMS5003;61051;62.624;17.950;2023-11-18T06:27:50;3;3;
72908;PMS5003;61051;62.624;17.950;2023-11-18T06:30:19;9;6;
72908;PMS5003;61051;62.624;17.950;2023-11-18T06:32:48;6;4;
72908;PMS5003;61051;62.624;17.950;2023-11-18T06:35:17;7;7;
72908;PMS5003;61051;62.624;17.950;2023-11-18T06:37:46;10;7;
72908;PMS5003;61051;62.624;17.950;2023-11-18T06:40:16;23;10;
72908;PMS5003;61051;62.624;17.950;2023-11-18T06:42:45;12;9;
72908;PMS5003;61051;62.624;17.950;2023-11-18T06:45:14;10;9;
72908;PMS5003;61051;62.624;17.950;2023-11-18T06:47:43;13;7;
72908;PMS5003;61051;62.624;17.950;2023-11-18T06:50:12;10;9;
72908;PMS5003;61051;62.624;17.950;2023-11-18T06:52:41;13;10;
72908;PMS5003;61051;62.624;17.950;2023-11-18T06:55:10;10;9;
72908;PMS5003;61051;62.624;17.950;2023-11-18T06:57:39;13;12;
72908;PMS5003;61051;62.624;17.950;2023-11-18T07:00:09;9;6;
72908;PMS5003;61051;62.624;17.950;2023-11-18T07:02:38;10;9;
72908;PMS5003;61051;62.624;17.950;2023-11-18T07:05:06;12;10;
72908;PMS5003;61051;62.624;17.950;2023-11-18T07:07:35;15;9;
72908;PMS5003;61051;62.624;17.950;2023-11-18T07:10:04;15;7;
72908;PMS5003;61051;62.624;17.950;2023-11-18T07:12:33;13;5;
72908;PMS5003;61051;62.624;17.950;2023-11-18T07:15:02;9;9;
72908;PMS5003;61051;62.624;17.950;2023-11-18T07:17:31;9;9;
72908;PMS5003;61051;62.624;17.950;2023-11-18T07:20:00;13;9;
72908;PMS5003;61051;62.624;17.950;2023-11-18T07:22:29;16;11;
72908;PMS5003;61051;62.624;17.950;2023-11-18T07:24:58;8;7;
72908;PMS5003;61051;62.624;17.950;2023-11-18T07:27:27;13;10;
72908;PMS5003;61051;62.624;17.950;2023-11-18T07:29:56;8;8;
72908;PMS5003;61051;62.624;17.950;2023-11-18T07:32:25;11;7;
72908;PMS5003;61051;62.624;17.950;2023-11-18T07:34:54;8;8;
72908;PMS5003;61051;62.624;17.950;2023-11-18T07:37:22;8;8;
72908;PMS5003;61051;62.624;17.950;2023-11-18T07:39:52;11;7;
72908;PMS5003;61051;62.624;17.950;2023-11-18T07:42:21;5;4;
72908;PMS5003;61051;62.624;17.950;2023-11-18T07:44:49;8;8;
72908;PMS5003;61051;62.624;17.950;2023-11-18T07:47:18;7;5;
72908;PMS5003;61051;62.624;17.950;2023-11-18T07:49:47;7;7;
72908;PMS5003;61051;62.624;17.950;2023-11-18T07:52:16;8;5;
72908;PMS5003;61051;62.624;17.950;2023-11-18T07:54:45;5;5;
72908;PMS5003;61051;62.624;17.950;2023-11-18T07:57:14;4;4;
72908;PMS5003;61051;62.624;17.950;2023-11-18T07:59:43;5;5;
72908;PMS5003;61051;62.624;17.950;2023-11-18T08:02:11;8;5;
72908;PMS5003;61051;62.624;17.950;2023-11-18T08:04:39;11;8;
72908;PMS5003;61051;62.624;17.950;2023-11-18T08:07:08;14;8;
72908;PMS5003;61051;62.624;17.950;2023-11-18T08:09:37;8;7;
72908;PMS5003;61051;62.624;17.950;2023-11-18T08:12:06;8;7;
72908;PMS5003;61051;62.624;17.950;2023-11-18T08:14:35;8;8;
72908;PMS5003;61051;62.624;17.950;2023-11-18T08:17:04;7;5;
72908;PMS5003;61051;62.624;17.950;2023-11-18T08:19:32;7;5;
72908;PMS5003;61051;62.624;17.950;2023-11-18T08:22:01;5;5;
72908;PMS5003;61051;62.624;17.950;2023-11-18T08:24:30;4;4;
72908;PMS5003;61051;62.624;17.950;2023-11-18T08:27:00;7;7;
72908;PMS5003;61051;62.624;17.950;2023-11-18T08:29:32;7;4;
72908;PMS5003;61051;62.624;17.950;2023-11-18T08:32:01;5;4;
72908;PMS5003;61051;62.624;17.950;2023-11-18T08:34:30;7;7;
72908;PMS5003;61051;62.624;17.950;2023-11-18T08:36:59;11;10;
72908;PMS5003;61051;62.624;17.950;2023-11-18T08:39:29;11;11;
72908;PMS5003;61051;62.624;17.950;2023-11-18T08:41:58;19;13;
72908;PMS5003;61051;62.624;17.950;2023-11-18T08:44:28;27;20;
72908;PMS5003;61051;62.624;17.950;2023-11-18T08:46:55;17;15;
72908;PMS5003;61051;62.624;17.950;2023-11-18T08:49:23;12;12;
72908;PMS5003;61051;62.624;17.950;2023-11-18T08:51:53;30;18;
72908;PMS5003;61051;62.624;17.950;2023-11-18T08:54:22;37;30;
72908;PMS5003;61051;62.624;17.950;2023-11-18T08:56:51;43;33;
72908;PMS5003;61051;62.624;17.950;2023-11-18T08:59:20;49;33;
72908;PMS5003;61051;62.624;17.950;2023-11-18T09:01:49;31;26;
72908;PMS5003;61051;62.624;17.950;2023-11-18T09:04:17;33;26;
72908;PMS5003;61051;62.624;17.950;2023-11-18T09:06:46;36;20;
72908;PMS5003;61051;62.624;17.950;2023-11-18T09:09:14;30;20;
72908;PMS5003;61051;62.624;17.950;2023-11-18T09:11:43;20;18;
72908;PMS5003;61051;62.624;17.950;2023-11-18T09:14:12;21;18;
72908;PMS5003;61051;62.624;17.950;2023-11-18T09:16:39;28;21;
72908;PMS5003;61051;62.624;17.950;2023-11-18T09:19:07;23;18;
72908;PMS5003;61051;62.624;17.950;2023-11-18T09:21:36;21;20;
72908;PMS5003;61051;62.624;17.950;2023-11-18T09:24:05;34;25;
72908;PMS5003;61051;62.624;17.950;2023-11-18T09:26:34;21;15;
72908;PMS5003;61051;62.624;17.950;2023-11-18T09:29:02;48;29;
72908;PMS5003;61051;62.624;17.950;2023-11-18T09:31:30;45;30;
72908;PMS5003;61051;62.624;17.950;2023-11-18T09:33:58;42;28;
72908;PMS5003;61051;62.624;17.950;2023-11-18T09:36:27;61;39;
72908;PMS5003;61051;62.624;17.950;2023-11-18T09:38:55;29;25;
72908;PMS5003;61051;62.624;17.950;2023-11-18T09:41:24;21;17;
72908;PMS5003;61051;62.624;17.950;2023-11-18T09:43:53;25;17;
72908;PMS5003;61051;62.624;17.950;2023-11-18T09:46:22;19;15;
72908;PMS5003;61051;62.624;17.950;2023-11-18T09:48:52;21;14;
72908;PMS5003;61051;62.624;17.950;2023-11-18T09:51:26;14;12;
72908;PMS5003;61051;62.624;17.950;2023-11-18T09:53:58;16;16;
72908;PMS5003;61051;62.624;17.950;2023-11-18T09:56:30;14;11;
72908;PMS5003;61051;62.624;17.950;2023-11-18T09:59:05;9;9;
72908;PMS5003;61051;62.624;17.950;2023-11-18T10:01:39;9;9;
72908;PMS5003;61051;62.624;17.950;2023-11-18T10:04:12;14;12;
72908;PMS5003;61051;62.624;17.950;2023-11-18T10:06:41;18;14;
72908;PMS5003;61051;62.624;17.950;2023-11-18T10:09:12;12;11;
72908;PMS5003;61051;62.624;17.950;2023-11-18T10:11:41;11;8;
72908;PMS5003;61051;62.624;17.950;2023-11-18T10:14:12;9;9;
72908;PMS5003;61051;62.624;17.950;2023-11-18T10:16:41;9;9;
72908;PMS5003;61051;62.624;17.950;2023-11-18T10:19:10;9;8;
72908;PMS5003;61051;62.624;17.950;2023-11-18T10:21:38;13;9;
72908;PMS5003;61051;62.624;17.950;2023-11-18T10:24:07;8;8;
72908;PMS5003;61051;62.624;17.950;2023-11-18T10:26:36;21;14;
72908;PMS5003;61051;62.624;17.950;2023-11-18T10:29:05;12;11;
72908;PMS5003;61051;62.624;17.950;2023-11-18T10:31:34;8;8;
72908;PMS5003;61051;62.624;17.950;2023-11-18T10:34:03;15;11;
72908;PMS5003;61051;62.624;17.950;2023-11-18T10:36:32;11;9;
72908;PMS5003;61051;62.624;17.950;2023-11-18T10:39:01;9;8;
72908;PMS5003;61051;62.624;17.950;2023-11-18T10:41:29;11;8;
72908;PMS5003;61051;62.624;17.950;2023-11-18T10:44:05;20;9;
72908;PMS5003;61051;62.624;17.950;2023-11-18T10:46:35;13;12;
72908;PMS5003;61051;62.624;17.950;2023-11-18T10:49:04;15;11;
72908;PMS5003;61051;62.624;17.950;2023-11-18T10:51:33;16;9;
72908;PMS5003;61051;62.624;17.950;2023-11-18T10:54:02;15;12;
72908;PMS5003;61051;62.624;17.950;2023-11-18T10:56:33;11;11;
72908;PMS5003;61051;62.624;17.950;2023-11-18T10:59:04;16;12;
72908;PMS5003;61051;62.624;17.950;2023-11-18T11:03:25;13;12;
72908;PMS5003;61051;62.624;17.950;2023-11-18T11:05:54;22;15;
72908;PMS5003;61051;62.624;17.950;2023-11-18T11:08:24;23;17;
72908;PMS5003;61051;62.624;17.950;2023-11-18T11:10:54;19;16;
72908;PMS5003;61051;62.624;17.950;2023-11-18T11:13:25;27;15;
72908;PMS5003;61051;62.624;17.950;2023-11-18T11:15:56;20;16;
72908;PMS5003;61051;62.624;17.950;2023-11-18T11:18:28;20;19;
72908;PMS5003;61051;62.624;17.950;2023-11-18T11:21:02;23;13;
72908;PMS5003;61051;62.624;17.950;2023-11-18T11:23:37;23;15;
72908;PMS5003;61051;62.624;17.950;2023-11-18T11:26:18;23;22;
72908;PMS5003;61051;62.624;17.950;2023-11-18T11:28:57;47;33;
72908;PMS5003;61051;62.624;17.950;2023-11-18T11:31:30;35;27;
72908;PMS5003;61051;62.624;17.950;2023-11-18T11:34:02;26;17;
72908;PMS5003;61051;62.624;17.950;2023-11-18T11:36:35;30;24;
72908;PMS5003;61051;62.624;17.950;2023-11-18T11:39:06;30;17;
72908;PMS5003;61051;62.624;17.950;2023-11-18T11:41:36;20;17;
72908;PMS5003;61051;62.624;17.950;2023-11-18T11:44:05;17;17;
72908;PMS5003;61051;62.624;17.950;2023-11-18T11:46:34;17;12;
72908;PMS5003;61051;62.624;17.950;2023-11-18T11:49:03;13;12;
72908;PMS5003;61051;62.624;17.950;2023-11-18T11:51:35;19;13;
72908;PMS5003;61051;62.624;17.950;2023-11-18T11:54:09;21;14;
72908;PMS5003;61051;62.624;17.950;2023-11-18T11:56:42;18;17;
72908;PMS5003;61051;62.624;17.950;2023-11-18T11:59:11;21;17;
72908;PMS5003;61051;62.624;17.950;2023-11-18T12:01:40;18;15;
72908;PMS5003;61051;62.624;17.950;2023-11-18T12:04:08;18;12;
72908;PMS5003;61051;62.624;17.950;2023-11-18T12:06:40;20;16;
72908;PMS5003;61051;62.624;17.950;2023-11-18T12:09:11;15;12;
72908;PMS5003;61051;62.624;17.950;2023-11-18T12:11:41;16;15;
72908;PMS5003;61051;62.624;17.950;2023-11-18T12:14:10;12;11;
72908;PMS5003;61051;62.624;17.950;2023-11-18T12:17:13;14;12;
72908;PMS5003;61051;62.624;17.950;2023-11-18T12:19:41;14;10;
72908;PMS5003;61051;62.624;17.950;2023-11-18T12:22:11;14;11;
72908;PMS5003;61051;62.624;17.950;2023-11-18T12:24:40;10;7;
72908;PMS5003;61051;62.624;17.950;2023-11-18T12:27:09;11;10;
72908;PMS5003;61051;62.624;17.950;2023-11-18T12:29:41;9;9;
72908;PMS5003;61051;62.624;17.950;2023-11-18T12:32:10;11;8;
72908;PMS5003;61051;62.624;17.950;2023-11-18T12:34:55;18;7;
72908;PMS5003;61051;62.624;17.950;2023-11-18T12:37:32;9;9;
72908;PMS5003;61051;62.624;17.950;2023-11-18T12:40:23;13;11;
72908;PMS5003;61051;62.624;17.950;2023-11-18T12:43:46;6;6;
72908;PMS5003;61051;62.624;17.950;2023-11-18T12:46:38;9;6;
72908;PMS5003;61051;62.624;17.950;2023-11-18T12:49:17;9;9;
72908;PMS5003;61051;62.624;17.950;2023-11-18T12:51:46;12;6;
72908;PMS5003;61051;62.624;17.950;2023-11-18T12:54:15;8;8;
72908;PMS5003;61051;62.624;17.950;2023-11-18T12:56:45;9;8;
72908;PMS5003;61051;62.624;17.950;2023-11-18T12:59:14;12;9;
72908;PMS5003;61051;62.624;17.950;2023-11-18T13:01:43;13;13;
72908;PMS5003;61051;62.624;17.950;2023-11-18T13:04:13;13;10;
72908;PMS5003;61051;62.624;17.950;2023-11-18T13:06:42;20;17;
72908;PMS5003;61051;62.624;17.950;2023-11-18T13:09:10;24;15;
72908;PMS5003;61051;62.624;17.950;2023-11-18T13:11:39;13;13;
72908;PMS5003;61051;62.624;17.950;2023-11-18T13:14:08;24;20;
72908;PMS5003;61051;62.624;17.950;2023-11-18T13:16:37;28;23;
72908;PMS5003;61051;62.624;17.950;2023-11-18T13:19:05;17;15;
72908;PMS5003;61051;62.624;17.950;2023-11-18T13:21:34;19;19;
72908;PMS5003;61051;62.624;17.950;2023-11-18T13:24:03;20;16;
72908;PMS5003;61051;62.624;17.950;2023-11-18T13:26:32;9;9;
72908;PMS5003;61051;62.624;17.950;2023-11-18T13:29:01;13;9;
72908;PMS5003;61051;62.624;17.950;2023-11-18T13:31:29;8;8;
72908;PMS5003;61051;62.624;17.950;2023-11-18T13:33:59;9;6;
72908;PMS5003;61051;62.624;17.950;2023-11-18T13:36:27;13;12;
72908;PMS5003;61051;62.624;17.950;2023-11-18T13:38:55;18;13;
72908;PMS5003;61051;62.624;17.950;2023-11-18T13:41:31;9;8;
72908;PMS5003;61051;62.624;17.950;2023-11-18T13:44:00;12;12;
72908;PMS5003;61051;62.624;17.950;2023-11-18T13:46:30;15;13;
72908;PMS5003;61051;62.624;17.950;2023-11-18T13:48:58;8;8;
72908;PMS5003;61051;62.624;17.950;2023-11-18T13:51:27;9;9;
72908;PMS5003;61051;62.624;17.950;2023-11-18T13:53:56;12;12;
72908;PMS5003;61051;62.624;17.950;2023-11-18T13:56:24;16;11;
72908;PMS5003;61051;62.624;17.950;2023-11-18T13:58:53;13;13;
72908;PMS5003;61051;62.624;17.950;2023-11-18T14:01:22;12;11;
72908;PMS5003;61051;62.624;17.950;2023-11-18T14:03:52;11;8;
72908;PMS5003;61051;62.624;17.950;2023-11-18T14:06:22;13;9;
72908;PMS5003;61051;62.624;17.950;2023-11-18T14:08:51;11;11;
72908;PMS5003;61051;62.624;17.950;2023-11-18T14:11:20;16;12;
72908;PMS5003;61051;62.624;17.950;2023-11-18T14:13:49;12;11;
72908;PMS5003;61051;62.624;17.950;2023-11-18T14:16:18;7;7;
72908;PMS5003;61051;62.624;17.950;2023-11-18T14:18:45;12;9;
72908;PMS5003;61051;62.624;17.950;2023-11-18T14:21:14;9;9;
72908;PMS5003;61051;62.624;17.950;2023-11-18T14:23:43;8;7;
72908;PMS5003;61051;62.624;17.950;2023-11-18T14:26:12;11;9;
72908;PMS5003;61051;62.624;17.950;2023-11-18T14:28:41;7;7;
72908;PMS5003;61051;62.624;17.950;2023-11-18T14:31:10;9;8;
72908;PMS5003;61051;62.624;17.950;2023-11-18T14:33:39;7;7;
72908;PMS5003;61051;62.624;17.950;2023-11-18T14:36:08;17;11;
72908;PMS5003;61051;62.624;17.950;2023-11-18T14:38:36;10;10;
72908;PMS5003;61051;62.624;17.950;2023-11-18T14:41:05;10;7;
72908;PMS5003;61051;62.624;17.950;2023-11-18T14:43:34;7;7;
72908;PMS5003;61051;62.624;17.950;2023-11-18T14:46:03;18;14;
72908;PMS5003;61051;62.624;17.950;2023-11-18T14:48:33;22;17;
72908;PMS5003;61051;62.624;17.950;2023-11-18T14:51:01;31;20;
72908;PMS5003;61051;62.624;17.950;2023-11-18T14:53:30;32;27;
72908;PMS5003;61051;62.624;17.950;2023-11-18T14:56:00;21;15;
72908;PMS5003;61051;62.624;17.950;2023-11-18T14:58:28;15;14;
72908;PMS5003;61051;62.624;17.950;2023-11-18T15:00:57;25;22;
72908;PMS5003;61051;62.624;17.950;2023-11-18T15:03:25;15;11;
72908;PMS5003;61051;62.624;17.950;2023-11-18T15:05:54;11;11;
72908;PMS5003;61051;62.624;17.950;2023-11-18T15:08:23;12;9;
72908;PMS5003;61051;62.624;17.950;2023-11-18T15:10:52;9;7;
72908;PMS5003;61051;62.624;17.950;2023-11-18T15:13:20;12;10;
72908;PMS5003;61051;62.624;17.950;2023-11-18T15:15:48;14;14;
72908;PMS5003;61051;62.624;17.950;2023-11-18T15:18:16;13;10;
72908;PMS5003;61051;62.624;17.950;2023-11-18T15:20:45;13;10;
72908;PMS5003;61051;62.624;17.950;2023-11-18T15:23:14;11;8;
72908;PMS5003;61051;62.624;17.950;2023-11-18T15:25:44;13;10;
72908;PMS5003;61051;62.624;17.950;2023-11-18T15:28:13;15;15;
72908;PMS5003;61051;62.624;17.950;2023-11-18T15:30:41;12;12;
72908;PMS5003;61051;62.624;17.950;2023-11-18T15:33:11;14;14;
72908;PMS5003;61051;62.624;17.950;2023-11-18T15:35:40;15;11;
72908;PMS5003;61051;62.624;17.950;2023-11-18T15:38:09;31;17;
72908;PMS5003;61051;62.624;17.950;2023-11-18T15:40:40;21;21;
72908;PMS5003;61051;62.624;17.950;2023-11-18T15:43:08;25;22;
72908;PMS5003;61051;62.624;17.950;2023-11-18T15:45:36;18;14;
72908;PMS5003;61051;62.624;17.950;2023-11-18T15:48:05;21;14;
72908;PMS5003;61051;62.624;17.950;2023-11-18T15:50:33;20;17;
72908;PMS5003;61051;62.624;17.950;2023-11-18T15:53:02;26;18;
72908;PMS5003;61051;62.624;17.950;2023-11-18T15:55:30;37;22;
72908;PMS5003;61051;62.624;17.950;2023-11-18T15:58:00;33;24;
72908;PMS5003;61051;62.624;17.950;2023-11-18T16:00:29;27;21;
72908;PMS5003;61051;62.624;17.950;2023-11-18T16:02:57;39;33;
72908;PMS5003;61051;62.624;17.950;2023-11-18T16:05:27;29;23;
72908;PMS5003;61051;62.624;17.950;2023-11-18T16:07:56;26;24;
72908;PMS5003;61051;62.624;17.950;2023-11-18T16:10:25;28;20;
72908;PMS5003;61051;62.624;17.950;2023-11-18T16:12:54;36;24;
72908;PMS5003;61051;62.624;17.950;2023-11-18T16:15:25;23;20;
72908;PMS5003;61051;62.624;17.950;2023-11-18T16:17:54;25;22;
72908;PMS5003;61051;62.624;17.950;2023-11-18T16:20:24;21;18;
72908;PMS5003;61051;62.624;17.950;2023-11-18T16:22:53;18;14;
72908;PMS5003;61051;62.624;17.950;2023-11-18T16:25:23;27;17;
72908;PMS5003;61051;62.624;17.950;2023-11-18T16:27:54;14;14;
72908;PMS5003;61051;62.624;17.950;2023-11-18T16:30:25;14;14;
72908;PMS5003;61051;62.624;17.950;2023-11-18T16:32:53;20;14;
72908;PMS5003;61051;62.624;17.950;2023-11-18T16:35:22;20;17;